Time;durP1;ratioP1;P1;durP2;ratioP2;P2;SDS_P1;SDS_P2;PMS_P1;PMS_P2;Temp;Humidity;BMP_temperature;BMP_pressure;BME280_temperature;BME280_humidity;BME280_pressure;Samples;Min_cycle;Max_cycle;Signal;HPM_P1;HPM_P2
2022/03/25 00:01:51;;;;;;;13.73;12.60;;;11.50;29.20;;;;;;20389;6879;281702;-72
2022/03/25 00:04:15;;;;;;;12.10;11.10;;;11.80;29.10;;;;;;20615;6879;122225;-74
2022/03/25 00:06:40;;;;;;;14.57;13.30;;;11.60;28.90;;;;;;20411;6879;279935;-72
2022/03/25 00:09:06;;;;;;;17.93;16.20;;;11.70;28.90;;;;;;20406;6879;309527;-72
2022/03/25 00:11:31;;;;;;;16.35;14.75;;;11.80;28.00;;;;;;20589;6879;121535;-72
2022/03/25 00:13:57;;;;;;;15.40;12.97;;;11.60;28.10;;;;;;20622;6879;118017;-76
2022/03/25 00:16:24;;;;;;;16.58;14.87;;;11.30;28.50;;;;;;20619;6879;118213;-72
2022/03/25 00:18:48;;;;;;;20.23;13.70;;;11.00;29.50;;;;;;20614;6879;118133;-72
2022/03/25 00:21:14;;;;;;;18.20;16.37;;;10.80;29.00;;;;;;20397;6879;313070;-75
2022/03/25 00:23:39;;;;;;;18.17;16.30;;;11.00;29.10;;;;;;20398;6879;325294;-72
2022/03/25 00:26:05;;;;;;;17.27;14.43;;;11.40;28.70;;;;;;20624;6879;117891;-72
2022/03/25 00:28:30;;;;;;;17.90;16.10;;;11.30;28.80;;;;;;20410;6879;330926;-72
2022/03/25 00:30:56;;;;;;;17.05;15.43;;;11.40;28.90;;;;;;20408;6879;347159;-75
2022/03/25 00:33:21;;;;;;;17.83;16.23;;;11.60;29.10;;;;;;20407;6879;305540;-72
2022/03/25 00:35:48;;;;;;;17.80;15.90;;;11.60;28.80;;;;;;20605;6879;123377;-72
2022/03/25 00:38:13;;;;;;;16.73;15.13;;;11.60;28.60;;;;;;20620;6879;118345;-72
2022/03/25 00:40:39;;;;;;;18.10;16.37;;;11.30;28.90;;;;;;20398;6879;338497;-72
2022/03/25 00:43:06;;;;;;;18.45;16.65;;;11.30;29.30;;;;;;20365;6879;319700;-75
2022/03/25 00:45:31;;;;;;;16.53;14.90;;;11.60;29.10;;;;;;20594;6879;118101;-74
2022/03/25 00:47:56;;;;;;;15.85;13.85;;;11.50;29.10;;;;;;20406;6879;120598;-74
2022/03/25 00:50:21;;;;;;;17.77;15.97;;;11.20;29.30;;;;;;20596;6879;117756;-72
2022/03/25 00:52:47;;;;;;;16.80;14.67;;;10.90;29.50;;;;;;20623;6879;117960;-72
2022/03/25 00:55:12;;;;;;;18.17;16.23;;;10.80;29.60;;;;;;20411;6879;310888;-73
2022/03/25 00:57:38;;;;;;;16.73;15.03;;;11.00;29.90;;;;;;20606;6879;118267;-71
2022/03/25 01:00:04;;;;;;;17.77;16.17;;;11.00;29.70;;;;;;20400;6879;338073;-75
2022/03/25 01:02:30;;;;;;;16.90;15.30;;;11.10;29.90;;;;;;20616;6879;118743;-74
2022/03/25 01:04:57;;;;;;;18.87;17.10;;;11.20;29.60;;;;;;20403;6879;331430;-75
2022/03/25 01:07:22;;;;;;;17.90;16.10;;;11.20;29.50;;;;;;20623;6877;118339;-72
2022/03/25 01:09:49;;;;;;;16.93;15.20;;;10.80;29.60;;;;;;20615;6879;118009;-72
2022/03/25 01:12:14;;;;;;;19.30;17.53;;;10.80;29.70;;;;;;20413;6879;309041;-73
2022/03/25 01:14:40;;;;;;;18.50;16.70;;;11.00;30.40;;;;;;20414;6879;301367;-71
2022/03/25 01:17:05;;;;;;;17.07;15.37;;;11.30;30.00;;;;;;20619;6879;118215;-72
2022/03/25 01:19:31;;;;;;;18.48;16.33;;;11.20;30.00;;;;;;20602;6879;122124;-72
2022/03/25 01:21:56;;;;;;;21.77;15.70;;;10.90;30.00;;;;;;20611;6879;120032;-73
2022/03/25 01:24:22;;;;;;;17.47;15.63;;;10.70;30.10;;;;;;20618;6879;117826;-71
2022/03/25 01:26:47;;;;;;;17.60;15.95;;;10.40;30.10;;;;;;20400;6879;338277;-72
2022/03/25 01:29:13;;;;;;;16.57;14.80;;;10.60;29.80;;;;;;20615;6879;117794;-72
2022/03/25 01:31:39;;;;;;;18.07;16.27;;;10.50;29.70;;;;;;20374;6879;283991;-74
2022/03/25 01:34:04;;;;;;;16.73;15.13;;;10.70;30.50;;;;;;20604;6879;117794;-72
2022/03/25 01:36:30;;;;;;;18.60;16.77;;;10.50;30.20;;;;;;20397;6879;309619;-72
2022/03/25 01:38:55;;;;;;;18.17;16.58;;;10.70;30.70;;;;;;20401;6879;305527;-74
2022/03/25 01:41:22;;;;;;;17.13;15.07;;;10.80;30.40;;;;;;20594;6879;118935;-71
2022/03/25 01:43:53;;;;;;;18.73;16.57;;;10.70;30.40;;;;;;20361;6879;338000;-72
2022/03/25 01:46:19;;;;;;;16.70;15.00;;;10.80;29.80;;;;;;20564;6879;117918;-74
2022/03/25 01:48:44;;;;;;;19.27;17.37;;;10.60;29.90;;;;;;20398;6879;306860;-72
2022/03/25 01:51:10;;;;;;;19.43;17.43;;;10.50;30.80;;;;;;20568;6879;117860;-72
2022/03/25 01:53:36;;;;;;;20.17;18.27;;;10.50;30.10;;;;;;20371;6879;309547;-72
2022/03/25 01:56:03;;;;;;;19.75;17.75;;;10.60;30.20;;;;;;20400;6879;317101;-75
2022/03/25 01:58:28;;;;;;;20.53;17.27;;;10.80;30.00;;;;;;20616;6879;118952;-73
2022/03/25 02:00:54;;;;;;;17.83;16.07;;;10.60;30.00;;;;;;20617;6879;117692;-76
2022/03/25 02:03:19;;;;;;;18.03;16.13;;;10.30;30.40;;;;;;20615;6879;117900;-72
2022/03/25 02:05:46;;;;;;;19.50;17.70;;;10.10;30.80;;;;;;20399;6879;280376;-72
2022/03/25 02:08:12;;;;;;;19.98;18.17;;;10.40;30.90;;;;;;20409;6879;309142;-71
2022/03/25 02:10:38;;;;;;;22.63;16.97;;;10.40;30.80;;;;;;20615;6879;118479;-71
2022/03/25 02:13:04;;;;;;;19.73;17.83;;;10.30;30.60;;;;;;20398;6879;292805;-72
2022/03/25 02:15:40;;;;;;;19.57;17.77;;;10.50;30.40;;;;;;20399;6879;309948;-74
2022/03/25 02:18:05;;;;;;;19.67;16.60;;;10.50;30.40;;;;;;20453;6877;118762;-72
2022/03/25 02:20:31;;;;;;;18.83;16.83;;;10.20;30.40;;;;;;20612;6878;117810;-72
2022/03/25 02:22:56;;;;;;;20.55;17.77;;;9.90;31.90;;;;;;20605;6879;119415;-72
2022/03/25 02:25:22;;;;;;;20.07;18.10;;;9.60;32.40;;;;;;20404;6879;308662;-75
2022/03/25 02:27:48;;;;;;;20.03;17.57;;;9.70;32.50;;;;;;20588;6879;118349;-74
2022/03/25 02:30:13;;;;;;;20.07;17.97;;;9.70;32.50;;;;;;20393;6879;279855;-72
2022/03/25 02:32:39;;;;;;;20.10;18.23;;;9.80;32.40;;;;;;20393;6879;293446;-72
2022/03/25 02:35:04;;;;;;;20.65;17.90;;;10.00;31.30;;;;;;20610;6879;117428;-72
2022/03/25 02:37:30;;;;;;;20.35;18.25;;;9.90;32.40;;;;;;20392;6879;279449;-74
2022/03/25 02:39:55;;;;;;;20.02;18.02;;;9.90;32.30;;;;;;20399;6879;312256;-73
2022/03/25 02:42:21;;;;;;;20.00;18.10;;;10.20;31.30;;;;;;20400;6879;282514;-72
2022/03/25 02:44:48;;;;;;;17.30;15.70;;;10.10;30.80;;;;;;20587;6879;118295;-71
2022/03/25 02:47:13;;;;;;;17.97;15.53;;;10.10;30.80;;;;;;20609;6879;117869;-72
2022/03/25 02:49:38;;;;;;;17.95;16.05;;;9.70;32.20;;;;;;20593;6879;119296;-74
2022/03/25 02:52:05;;;;;;;17.47;15.77;;;9.40;32.60;;;;;;20621;6879;120757;-72
2022/03/25 02:54:31;;;;;;;20.00;17.97;;;9.20;33.10;;;;;;20411;6879;279970;-73
2022/03/25 02:56:57;;;;;;;18.33;16.43;;;9.30;32.50;;;;;;20620;6879;117634;-72
2022/03/25 02:59:25;;;;;;;19.20;17.33;;;9.30;33.00;;;;;;20394;6879;309130;-76
2022/03/25 03:01:50;;;;;;;20.00;16.23;;;9.40;33.00;;;;;;20590;6879;118122;-71
2022/03/25 03:04:16;;;;;;;22.07;16.03;;;9.30;33.00;;;;;;20614;6879;117696;-72
2022/03/25 03:06:41;;;;;;;17.60;15.70;;;9.10;33.40;;;;;;20612;6879;117560;-74
2022/03/25 03:09:07;;;;;;;20.20;18.20;;;9.00;34.30;;;;;;20406;6879;314158;-72
2022/03/25 03:11:35;;;;;;;20.10;18.10;;;9.00;33.70;;;;;;20382;6879;321518;-72
2022/03/25 03:13:59;;;;;;;19.08;17.10;;;9.30;33.50;;;;;;20598;6879;118209;-72
2022/03/25 03:16:24;;;;;;;19.17;17.37;;;9.30;33.30;;;;;;20399;6879;309094;-72
2022/03/25 03:18:50;;;;;;;20.53;18.53;;;9.30;33.20;;;;;;20406;6879;279948;-75
2022/03/25 03:21:15;;;;;;;18.47;16.57;;;9.50;33.00;;;;;;20606;6879;117684;-75
2022/03/25 03:23:41;;;;;;;19.73;17.83;;;9.30;33.30;;;;;;20384;6879;280436;-73
2022/03/25 03:26:07;;;;;;;19.57;17.60;;;9.30;33.30;;;;;;20609;6879;117862;-72
2022/03/25 03:28:34;;;;;;;18.30;16.48;;;9.10;33.40;;;;;;20612;6879;117549;-72
2022/03/25 03:30:58;;;;;;;18.00;16.15;;;8.90;33.80;;;;;;20613;6877;118118;-73
2022/03/25 03:33:24;;;;;;;22.75;16.65;;;8.60;34.10;;;;;;20619;6879;117584;-72
2022/03/25 03:35:49;;;;;;;22.17;16.60;;;8.40;34.40;;;;;;20599;6879;117702;-71
2022/03/25 03:38:15;;;;;;;18.27;16.37;;;8.30;34.70;;;;;;20621;6879;124022;-72
2022/03/25 03:40:40;;;;;;;20.13;17.87;;;8.20;34.80;;;;;;20411;6879;303943;-74
2022/03/25 03:43:06;;;;;;;19.37;16.77;;;8.50;35.00;;;;;;20614;6879;118019;-72
2022/03/25 03:45:32;;;;;;;18.00;16.20;;;8.60;34.60;;;;;;20596;6879;118130;-72
2022/03/25 03:47:57;;;;;;;16.87;15.07;;;8.50;34.70;;;;;;20444;6879;117678;-75
2022/03/25 03:50:24;;;;;;;20.10;18.10;;;8.30;34.90;;;;;;20402;6879;279210;-72
2022/03/25 03:52:48;;;;;;;18.60;16.70;;;8.60;35.30;;;;;;20614;6879;117650;-73
2022/03/25 03:55:14;;;;;;;18.27;16.50;;;8.60;34.90;;;;;;20613;6879;118297;-71
2022/03/25 03:57:39;;;;;;;20.77;18.77;;;8.50;35.00;;;;;;20380;6879;309017;-75
2022/03/25 04:00:06;;;;;;;19.50;17.50;;;8.70;35.60;;;;;;20613;6879;118122;-73
2022/03/25 04:02:32;;;;;;;17.63;15.80;;;8.70;34.60;;;;;;20609;6879;117927;-71
2022/03/25 04:04:58;;;;;;;18.53;16.50;;;8.50;34.80;;;;;;20614;6879;117900;-76
2022/03/25 04:07:24;;;;;;;19.67;17.12;;;8.20;35.20;;;;;;20617;6879;117674;-73
2022/03/25 04:09:49;;;;;;;18.27;16.07;;;8.20;35.10;;;;;;20596;6879;117723;-75
2022/03/25 04:12:15;;;;;;;18.83;16.83;;;8.00;35.20;;;;;;20611;6879;117872;-73
2022/03/25 04:14:41;;;;;;;17.95;16.05;;;7.90;35.40;;;;;;20615;6879;117557;-72
2022/03/25 04:17:07;;;;;;;21.07;18.90;;;8.00;35.70;;;;;;20399;6879;337129;-72
2022/03/25 04:19:32;;;;;;;17.97;16.03;;;8.00;35.60;;;;;;20599;6879;117666;-75
2022/03/25 04:21:58;;;;;;;19.27;17.23;;;8.10;35.50;;;;;;20620;6879;121759;-71
2022/03/25 04:24:23;;;;;;;17.63;15.83;;;7.90;35.60;;;;;;20622;6879;118320;-72
2022/03/25 04:26:50;;;;;;;19.42;16.98;;;7.60;35.80;;;;;;20615;6879;118766;-72
2022/03/25 04:29:15;;;;;;;21.47;16.00;;;7.60;35.80;;;;;;20616;6879;117507;-74
2022/03/25 04:31:41;;;;;;;18.07;16.13;;;7.50;36.00;;;;;;20599;6879;117642;-75
2022/03/25 04:34:07;;;;;;;20.03;18.07;;;7.50;36.30;;;;;;20413;6879;309078;-72
2022/03/25 04:36:32;;;;;;;18.17;16.00;;;7.70;36.30;;;;;;20607;6879;117728;-75
2022/03/25 04:38:58;;;;;;;19.93;18.00;;;7.80;36.00;;;;;;20407;6879;279439;-71
2022/03/25 04:41:23;;;;;;;20.07;17.90;;;7.90;35.80;;;;;;20614;6877;117679;-71
2022/03/25 04:43:49;;;;;;;17.47;15.73;;;7.90;35.70;;;;;;20592;6878;117437;-73
2022/03/25 04:46:14;;;;;;;20.20;18.17;;;7.70;36.00;;;;;;20407;6879;299841;-71
2022/03/25 04:48:40;;;;;;;20.13;16.60;;;7.70;36.20;;;;;;20613;6879;118048;-70
2022/03/25 04:51:06;;;;;;;21.55;19.42;;;7.70;36.20;;;;;;20387;6879;325150;-71
2022/03/25 04:53:33;;;;;;;19.13;17.10;;;7.90;36.40;;;;;;20598;6879;148063;-69
2022/03/25 04:55:57;;;;;;;18.45;16.70;;;7.80;36.20;;;;;;20608;6879;118133;-69
2022/03/25 04:58:23;;;;;;;20.00;18.10;;;7.60;36.40;;;;;;20403;6879;341486;-70
2022/03/25 05:00:48;;;;;;;19.47;17.40;;;7.80;36.70;;;;;;20616;6879;117474;-70
2022/03/25 05:03:14;;;;;;;21.23;19.13;;;7.80;36.40;;;;;;20408;6879;302503;-70
2022/03/25 05:05:42;;;;;;;22.23;20.12;;;7.90;36.30;;;;;;20383;6879;312297;-69
2022/03/25 05:08:06;;;;;;;21.85;19.75;;;8.40;35.30;;;;;;20408;6879;308727;-69
2022/03/25 05:10:31;;;;;;;19.00;17.00;;;8.40;35.30;;;;;;20597;6879;123330;-73
2022/03/25 05:12:57;;;;;;;22.33;20.00;;;8.20;35.50;;;;;;20401;6879;286129;-72
2022/03/25 05:15:23;;;;;;;19.03;17.13;;;8.20;35.70;;;;;;20610;6879;117862;-70
2022/03/25 05:17:48;;;;;;;18.75;16.75;;;8.00;35.70;;;;;;20595;6879;117606;-72
2022/03/25 05:20:14;;;;;;;20.10;18.00;;;7.70;36.10;;;;;;20610;6879;117774;-72
2022/03/25 05:22:39;;;;;;;21.80;19.53;;;7.50;36.60;;;;;;20391;6879;301006;-75
2022/03/25 05:25:07;;;;;;;20.62;17.73;;;7.60;37.00;;;;;;20604;6879;117889;-72
2022/03/25 05:27:30;;;;;;;22.50;20.30;;;7.60;36.70;;;;;;20413;6879;312128;-74
2022/03/25 05:29:56;;;;;;;21.93;19.93;;;7.80;36.70;;;;;;20240;6879;283485;-74
2022/03/25 05:32:22;;;;;;;22.07;19.87;;;8.10;36.10;;;;;;20401;6879;309197;-73
2022/03/25 05:34:47;;;;;;;22.40;20.20;;;8.40;35.60;;;;;;20412;6879;306810;-74
2022/03/25 05:37:13;;;;;;;19.57;17.57;;;8.50;35.10;;;;;;20615;6879;120134;-74
2022/03/25 05:39:38;;;;;;;21.05;17.45;;;8.30;35.20;;;;;;20601;6879;117767;-73
2022/03/25 05:42:05;;;;;;;21.97;19.77;;;8.00;35.80;;;;;;20407;6879;329276;-73
2022/03/25 05:44:30;;;;;;;20.90;18.80;;;8.00;36.10;;;;;;20407;6879;338768;-73
2022/03/25 05:46:55;;;;;;;20.13;18.27;;;8.20;36.00;;;;;;20408;6879;309644;-74
2022/03/25 05:49:21;;;;;;;22.65;20.20;;;8.50;35.80;;;;;;20406;6879;309159;-74
2022/03/25 05:51:50;;;;;;;22.30;20.20;;;8.90;35.10;;;;;;20385;6879;313776;-74
2022/03/25 05:54:16;;;;;;;19.70;17.80;;;8.90;35.30;;;;;;20612;6877;117840;-75
2022/03/25 05:56:42;;;;;;;21.50;19.25;;;8.80;35.40;;;;;;20628;6879;123257;-73
2022/03/25 05:59:07;;;;;;;19.90;17.77;;;8.70;36.00;;;;;;20660;6879;67592;-74
2022/03/25 06:01:34;;;;;;;20.30;18.00;;;8.60;36.60;;;;;;20602;6879;121017;-73
2022/03/25 06:03:59;;;;;;;21.83;19.73;;;8.50;36.40;;;;;;20404;6879;338291;-71
2022/03/25 06:06:27;;;;;;;20.83;18.67;;;8.90;36.00;;;;;;20412;6879;309842;-72
2022/03/25 06:08:53;;;;;;;21.48;19.35;;;9.30;34.80;;;;;;20414;6879;310049;-75
2022/03/25 06:11:19;;;;;;;20.57;18.67;;;9.60;34.00;;;;;;20409;6879;309120;-75
2022/03/25 06:13:44;;;;;;;21.30;19.33;;;9.80;33.50;;;;;;20392;6879;309094;-72
2022/03/25 06:16:10;;;;;;;19.83;17.37;;;9.90;33.30;;;;;;20610;6879;117664;-75
2022/03/25 06:18:35;;;;;;;21.30;19.40;;;9.70;33.80;;;;;;20396;6879;338300;-75
2022/03/25 06:21:01;;;;;;;21.37;18.30;;;9.60;33.80;;;;;;20651;6879;118642;-76
2022/03/25 06:23:26;;;;;;;21.90;19.57;;;9.50;34.10;;;;;;20417;6879;308590;-79
2022/03/25 06:25:53;;;;;;;21.30;19.17;;;9.80;33.90;;;;;;20382;6879;327874;-74
2022/03/25 06:28:19;;;;;;;20.93;18.70;;;9.80;33.90;;;;;;20618;6879;117651;-82
2022/03/25 06:30:45;;;;;;;21.35;19.25;;;9.70;34.40;;;;;;20401;6879;279956;-74
2022/03/25 06:33:11;;;;;;;22.80;20.40;;;9.70;34.40;;;;;;20420;6879;280056;-74
2022/03/25 06:35:39;;;;;;;21.67;19.47;;;10.10;32.70;;;;;;20396;6879;297465;-74
2022/03/25 06:38:04;;;;;;;21.75;19.58;;;10.10;32.70;;;;;;20400;6879;339707;-75
2022/03/25 06:40:29;;;;;;;20.20;17.10;;;10.30;32.50;;;;;;20624;6879;118947;-69
2022/03/25 06:42:57;;;;;;;19.03;17.07;;;10.10;32.60;;;;;;20633;6879;117924;-73
2022/03/25 06:45:20;;;;;;;21.47;19.30;;;9.80;34.10;;;;;;20401;6879;309136;-73
2022/03/25 06:47:45;;;;;;;21.55;19.55;;;9.90;34.20;;;;;;20392;6879;309603;-77
2022/03/25 06:50:15;;;;;;;20.93;18.93;;;10.20;33.00;;;;;;20406;6879;314359;-74
2022/03/25 06:52:41;;;;;;;22.70;20.30;;;10.50;32.70;;;;;;20406;6879;293601;-74
2022/03/25 06:55:08;;;;;;;20.80;18.67;;;10.70;32.40;;;;;;20606;6879;117713;-75
2022/03/25 06:57:35;;;;;;;19.73;17.63;;;10.60;32.50;;;;;;20604;6879;122011;-76
2022/03/25 07:00:01;;;;;;;20.00;17.87;;;10.30;32.90;;;;;;20614;6879;118010;-76
2022/03/25 07:02:26;;;;;;;20.67;17.90;;;10.10;33.20;;;;;;20624;6879;117716;-76
2022/03/25 07:04:53;;;;;;;22.03;19.83;;;10.00;33.40;;;;;;20402;6877;339278;-76
2022/03/25 07:07:19;;;;;;;20.00;17.90;;;10.30;33.20;;;;;;20612;6878;118103;-78
2022/03/25 07:09:44;;;;;;;19.40;17.50;;;10.40;33.10;;;;;;20602;6879;118152;-77
2022/03/25 07:12:12;;;;;;;21.92;19.87;;;10.40;33.20;;;;;;20405;6879;342036;-76
2022/03/25 07:14:37;;;;;;;19.03;17.33;;;10.60;32.60;;;;;;20616;6879;117745;-76
2022/03/25 07:17:03;;;;;;;19.40;17.47;;;10.80;32.60;;;;;;20624;6879;117930;-76
2022/03/25 07:19:28;;;;;;;22.50;20.40;;;10.80;32.70;;;;;;20416;6879;314068;-77
2022/03/25 07:21:55;;;;;;;21.55;19.55;;;11.60;32.00;;;;;;20387;6879;309694;-74
2022/03/25 07:24:21;;;;;;;22.08;19.98;;;11.60;32.00;;;;;;20403;6879;347400;-74
2022/03/25 07:26:46;;;;;;;22.20;20.07;;;12.00;31.40;;;;;;20411;6879;319348;-74
2022/03/25 07:29:12;;;;;;;23.20;21.00;;;12.30;30.80;;;;;;20408;6879;309604;-74
2022/03/25 07:31:38;;;;;;;22.77;20.37;;;12.90;30.00;;;;;;20407;6879;313677;-77
2022/03/25 07:34:05;;;;;;;20.67;18.50;;;12.90;30.00;;;;;;20618;6879;117925;-72
2022/03/25 07:36:30;;;;;;;20.30;18.20;;;12.80;30.30;;;;;;20614;6879;118046;-72
2022/03/25 07:38:56;;;;;;;22.35;20.05;;;12.70;30.90;;;;;;20405;6879;308635;-72
2022/03/25 07:41:21;;;;;;;19.97;18.10;;;12.80;30.10;;;;;;20618;6879;117746;-73
2022/03/25 07:43:48;;;;;;;20.58;18.45;;;12.80;30.50;;;;;;20604;6879;130279;-72
2022/03/25 07:46:13;;;;;;;20.70;18.40;;;12.80;30.50;;;;;;20608;6879;118041;-72
2022/03/25 07:48:39;;;;;;;23.07;20.57;;;12.70;30.60;;;;;;20400;6879;338674;-71
2022/03/25 07:51:04;;;;;;;21.23;19.20;;;13.00;30.10;;;;;;20610;6879;117805;-72
2022/03/25 07:53:32;;;;;;;22.53;20.53;;;13.10;30.10;;;;;;20414;6879;308952;-79
2022/03/25 07:55:58;;;;;;;20.93;18.80;;;13.30;30.30;;;;;;20632;6879;122867;-77
2022/03/25 07:58:23;;;;;;;22.30;20.20;;;13.50;30.40;;;;;;20425;6879;339044;-76
2022/03/25 08:00:49;;;;;;;20.45;18.35;;;13.80;30.00;;;;;;20618;6879;117808;-76
2022/03/25 08:03:16;;;;;;;22.67;20.33;;;13.90;30.00;;;;;;20406;6879;342436;-76
2022/03/25 08:05:41;;;;;;;21.42;19.23;;;14.10;29.70;;;;;;20587;6879;131420;-75
2022/03/25 08:08:07;;;;;;;20.73;18.33;;;14.20;29.70;;;;;;20615;6879;118034;-77
2022/03/25 08:10:33;;;;;;;23.73;18.57;;;14.10;29.90;;;;;;20621;6879;117745;-72
2022/03/25 08:12:59;;;;;;;19.90;17.80;;;14.20;29.90;;;;;;20607;6879;117644;-73
2022/03/25 08:15:25;;;;;;;20.40;18.40;;;14.20;30.00;;;;;;20620;6879;117844;-71
2022/03/25 08:17:58;;;;;;;20.03;18.00;;;14.20;30.10;;;;;;20570;6877;117885;-72
2022/03/25 08:20:29;;;;;;;19.73;17.73;;;14.30;30.10;;;;;;20600;6879;119914;-72
2022/03/25 08:22:54;;;;;;;21.03;18.87;;;14.40;30.10;;;;;;20588;6879;118247;-73
2022/03/25 08:28:06;;;;;;;22.50;20.40;;;14.60;30.00;;;;;;20404;6879;342704;-72
2022/03/25 08:30:32;;;;;;;26.47;19.90;;;15.10;29.40;;;;;;20615;6879;117855;-72
2022/03/25 08:32:57;;;;;;;22.77;20.67;;;15.30;29.30;;;;;;20402;6879;284734;-73
2022/03/25 08:35:26;;;;;;;22.52;20.37;;;15.70;28.60;;;;;;20401;6879;334921;-73
2022/03/25 08:37:53;;;;;;;22.27;20.17;;;16.10;28.70;;;;;;20595;6879;118134;-77
2022/03/25 08:40:17;;;;;;;21.63;19.60;;;16.30;28.60;;;;;;20402;6879;308762;-73
2022/03/25 08:42:43;;;;;;;22.13;18.80;;;16.50;28.40;;;;;;20617;6879;118629;-70
2022/03/25 08:45:08;;;;;;;21.27;19.03;;;16.60;28.40;;;;;;20618;6879;118607;-72
2022/03/25 08:47:34;;;;;;;23.23;20.90;;;16.50;28.40;;;;;;20382;6879;279641;-73
2022/03/25 08:50:00;;;;;;;23.60;19.98;;;16.70;28.20;;;;;;20619;6879;119947;-72
2022/03/25 08:52:25;;;;;;;24.00;21.55;;;16.80;28.30;;;;;;20408;6879;295510;-73
2022/03/25 08:54:51;;;;;;;20.33;18.15;;;17.00;28.10;;;;;;20624;6879;119384;-74
2022/03/25 08:57:17;;;;;;;22.07;19.60;;;17.10;28.20;;;;;;20614;6879;120033;-74
2022/03/25 08:59:44;;;;;;;21.57;19.23;;;17.10;28.10;;;;;;20602;6879;123531;-74
2022/03/25 09:02:10;;;;;;;21.17;18.47;;;17.00;28.00;;;;;;20619;6879;117929;-74
2022/03/25 09:04:35;;;;;;;23.00;20.75;;;17.00;28.10;;;;;;20399;6879;299386;-73
2022/03/25 09:07:01;;;;;;;23.50;21.23;;;17.40;27.60;;;;;;20401;6879;339137;-73
2022/03/25 09:09:26;;;;;;;23.43;20.17;;;17.90;27.70;;;;;;20621;6879;118932;-74
2022/03/25 09:11:52;;;;;;;24.27;19.67;;;18.10;27.60;;;;;;20599;6879;119394;-73
2022/03/25 09:14:20;;;;;;;24.53;20.03;;;18.00;27.40;;;;;;20613;6879;117919;-74
2022/03/25 09:16:46;;;;;;;24.53;22.13;;;18.00;27.30;;;;;;20412;6879;279142;-74
2022/03/25 09:19:12;;;;;;;24.58;22.30;;;18.20;26.50;;;;;;20404;6879;313556;-74
2022/03/25 09:21:39;;;;;;;24.67;22.27;;;18.60;26.50;;;;;;20387;6879;279877;-77
2022/03/25 09:24:05;;;;;;;21.97;19.67;;;18.90;25.80;;;;;;20617;6879;119490;-74
2022/03/25 09:26:30;;;;;;;24.83;22.27;;;19.00;26.40;;;;;;20403;6879;279190;-73
2022/03/25 09:28:56;;;;;;;25.10;21.77;;;19.20;25.90;;;;;;20619;6877;118196;-73
2022/03/25 09:31:21;;;;;;;24.77;22.13;;;19.20;26.10;;;;;;20403;6879;291987;-75
2022/03/25 09:33:47;;;;;;;28.23;21.17;;;19.40;26.10;;;;;;20600;6879;121840;-75
2022/03/25 09:36:13;;;;;;;24.70;21.10;;;19.30;26.30;;;;;;20619;6879;124513;-75
2022/03/25 09:38:39;;;;;;;24.77;22.17;;;19.30;26.30;;;;;;20403;6879;309523;-75
2022/03/25 09:41:07;;;;;;;26.13;23.60;;;19.50;26.10;;;;;;20414;6879;279980;-75
2022/03/25 09:43:31;;;;;;;23.43;20.93;;;19.80;25.60;;;;;;20613;6879;118060;-77
2022/03/25 09:45:58;;;;;;;25.92;23.42;;;19.70;25.70;;;;;;20409;6879;343406;-74
2022/03/25 09:48:24;;;;;;;26.60;23.90;;;19.90;25.00;;;;;;20408;6879;332711;-75
2022/03/25 09:50:50;;;;;;;24.83;22.33;;;20.10;25.00;;;;;;20626;6879;117723;-75
2022/03/25 09:53:15;;;;;;;26.10;23.30;;;20.10;25.20;;;;;;20629;6879;118578;-76
2022/03/25 09:55:42;;;;;;;26.20;22.17;;;19.80;25.50;;;;;;20605;6879;119276;-75
2022/03/25 09:58:07;;;;;;;24.97;22.33;;;19.80;25.50;;;;;;20607;6879;118509;-75
2022/03/25 10:00:32;;;;;;;23.67;21.27;;;19.70;25.70;;;;;;20619;6879;123684;-76
2022/03/25 10:02:58;;;;;;;26.63;23.93;;;19.70;25.80;;;;;;20405;6879;314561;-75
2022/03/25 10:05:24;;;;;;;27.23;22.60;;;20.00;25.30;;;;;;20622;6879;117692;-79
2022/03/25 10:07:55;;;;;;;28.17;25.27;;;20.10;25.00;;;;;;20389;6879;279818;-76
2022/03/25 10:10:18;;;;;;;27.83;23.50;;;20.30;23.90;;;;;;20609;6879;118304;-76
2022/03/25 10:12:44;;;;;;;26.33;23.73;;;20.60;23.50;;;;;;20398;6879;309427;-73
2022/03/25 10:15:24;;;;;;;24.20;22.00;;;20.60;23.50;;;;;;20399;6879;309609;-72
2022/03/25 10:17:56;;;;;;;27.67;24.83;;;20.90;23.70;;;;;;20386;6879;282888;-70
2022/03/25 10:20:21;;;;;;;27.05;24.37;;;21.30;23.30;;;;;;20400;6879;335639;-72
2022/03/25 10:23:09;;;;;;;26.10;23.23;;;21.50;23.40;;;;;;20612;6879;118094;-72
2022/03/25 10:25:41;;;;;;;27.47;24.57;;;21.50;23.70;;;;;;20378;6879;309259;-77
2022/03/25 10:28:20;;;;;;;28.47;25.60;;;21.50;22.60;;;;;;20400;6879;283959;-72
2022/03/25 10:30:47;;;;;;;26.40;23.60;;;21.60;22.10;;;;;;20563;6879;124678;-72
2022/03/25 10:33:13;;;;;;;28.00;25.30;;;21.40;21.60;;;;;;20395;6879;311392;-77
2022/03/25 10:35:55;;;;;;;24.57;22.17;;;21.40;21.40;;;;;;20564;6879;117977;-77
2022/03/25 10:38:21;;;;;;;25.13;21.90;;;21.30;22.00;;;;;;20622;6879;117947;-77
2022/03/25 10:40:50;;;;;;;24.13;21.73;;;21.10;22.40;;;;;;20623;6877;117615;-79
2022/03/25 10:43:17;;;;;;;26.67;23.50;;;20.80;23.20;;;;;;20617;6879;118041;-74
2022/03/25 10:45:42;;;;;;;24.40;21.67;;;20.80;23.10;;;;;;20599;6879;127563;-74
2022/03/25 10:48:21;;;;;;;26.95;24.45;;;20.80;23.30;;;;;;20403;6879;309480;-74
2022/03/25 10:50:56;;;;;;;27.70;22.93;;;21.00;22.70;;;;;;20614;6879;117882;-73
2022/03/25 10:53:21;;;;;;;25.17;22.63;;;21.00;22.50;;;;;;20586;6879;117818;-71
2022/03/25 10:55:57;;;;;;;25.90;23.07;;;20.90;22.90;;;;;;20599;6879;121505;-75
2022/03/25 10:58:22;;;;;;;28.10;23.50;;;20.80;23.10;;;;;;20610;6879;118267;-75
2022/03/25 11:00:50;;;;;;;26.87;24.37;;;20.80;23.40;;;;;;20403;6879;313069;-78
2022/03/25 11:03:15;;;;;;;27.23;24.53;;;21.00;22.70;;;;;;20405;6879;280189;-80
2022/03/25 11:05:41;;;;;;;26.53;24.03;;;21.40;22.10;;;;;;20390;6879;310072;-73
2022/03/25 11:08:06;;;;;;;26.20;23.67;;;21.60;22.40;;;;;;20398;6879;309120;-74
2022/03/25 11:10:32;;;;;;;26.10;23.40;;;21.90;21.40;;;;;;20614;6879;118139;-74
2022/03/25 11:12:57;;;;;;;26.87;24.23;;;21.80;22.00;;;;;;20404;6879;308860;-75
2022/03/25 11:15:23;;;;;;;27.73;25.07;;;21.90;22.70;;;;;;20388;6879;343199;-71
2022/03/25 11:17:49;;;;;;;26.58;24.00;;;22.30;23.20;;;;;;20368;6879;299852;-75
2022/03/25 11:20:15;;;;;;;28.67;25.60;;;22.30;23.20;;;;;;20407;6879;313397;-71
2022/03/25 11:22:44;;;;;;;26.80;24.17;;;22.50;23.30;;;;;;20406;6879;308547;-76
2022/03/25 11:25:10;;;;;;;26.87;24.37;;;22.60;22.50;;;;;;20391;6879;313828;-74
2022/03/25 11:27:35;;;;;;;26.52;24.05;;;22.60;22.30;;;;;;20381;6879;309618;-77
2022/03/25 11:30:04;;;;;;;22.90;20.50;;;22.70;21.50;;;;;;20609;6879;118091;-73
2022/03/25 11:32:30;;;;;;;26.43;23.93;;;22.30;21.00;;;;;;20396;6879;298939;-74
2022/03/25 11:34:56;;;;;;;26.00;23.50;;;22.30;21.00;;;;;;20398;6879;312981;-74
2022/03/25 11:37:22;;;;;;;26.77;23.50;;;22.20;21.80;;;;;;20593;6879;117693;-74
2022/03/25 11:39:48;;;;;;;25.10;21.70;;;22.20;21.80;;;;;;20590;6879;119048;-74
2022/03/25 11:42:40;;;;;;;22.90;20.52;;;21.70;21.90;;;;;;20525;6879;117933;-75
2022/03/25 11:45:24;;;;;;;23.83;21.57;;;21.70;21.90;;;;;;19878;6879;120606;-74
2022/03/25 11:47:57;;;;;;;25.00;22.70;;;21.40;21.70;;;;;;20386;6879;280082;-75
2022/03/25 11:50:23;;;;;;;24.43;22.23;;;21.60;21.90;;;;;;20402;6879;309898;-74
2022/03/25 11:52:48;;;;;;;21.83;19.80;;;21.80;20.90;;;;;;20595;6878;117551;-72
2022/03/25 11:55:14;;;;;;;21.30;19.30;;;21.80;21.10;;;;;;20617;6879;118280;-72
2022/03/25 11:57:40;;;;;;;21.93;19.57;;;21.60;20.50;;;;;;20590;6879;118142;-79
2022/03/25 12:00:06;;;;;;;19.20;17.60;;;21.40;20.60;;;;;;20411;6879;280693;-71
2022/03/25 12:02:35;;;;;;;17.27;15.80;;;21.40;18.30;;;;;;20608;6879;117670;-69
2022/03/25 12:05:00;;;;;;;19.37;17.47;;;21.40;18.60;;;;;;20610;6879;117645;-70
2022/03/25 12:07:25;;;;;;;17.70;16.00;;;21.20;18.60;;;;;;20404;6879;282806;-71
2022/03/25 12:09:51;;;;;;;16.30;15.10;;;21.40;17.90;;;;;;20389;6879;309021;-71
2022/03/25 12:12:16;;;;;;;16.87;15.33;;;21.60;17.00;;;;;;20615;6879;118957;-71
2022/03/25 12:15:05;;;;;;;17.58;16.08;;;21.60;17.40;;;;;;20406;6879;299385;-71
2022/03/25 12:17:31;;;;;;;16.87;15.37;;;21.70;17.40;;;;;;20619;6879;118618;-71
2022/03/25 12:19:59;;;;;;;19.43;17.73;;;21.60;17.70;;;;;;20394;6879;307821;-75